Time;durP1;ratioP1;P1;durP2;ratioP2;P2;SDS_P1;SDS_P2;PMS_P1;PMS_P2;Temp;Humidity;BMP_temperature;BMP_pressure;BME280_temperature;BME280_humidity;BME280_pressure;Samples;Min_cycle;Max_cycle;Signal;HPM_P1;HPM_P2
2021/05/07 00:00:59;;;;;;;2.63;0.85;;;13.70;57.50;;;;;;6157754;23;20423;-74
2021/05/07 00:03:28;;;;;;;1.42;0.40;;;13.70;57.50;;;;;;6168159;23;20048;-74
2021/05/07 00:05:57;;;;;;;0.90;0.57;;;13.70;57.50;;;;;;6167641;23;20068;-74
2021/05/07 00:08:27;;;;;;;1.77;0.80;;;13.70;57.50;;;;;;6157834;23;20017;-74
2021/05/07 00:10:54;;;;;;;1.38;0.43;;;13.70;57.50;;;;;;6168740;23;20032;-74
2021/05/07 00:13:21;;;;;;;1.88;0.40;;;13.70;57.50;;;;;;6168167;23;20014;-74
2021/05/07 00:15:47;;;;;;;1.80;0.50;;;13.70;57.50;;;;;;6157811;23;20045;-74
2021/05/07 00:18:13;;;;;;;0.60;0.30;;;13.70;57.50;;;;;;6157787;23;20028;-74
2021/05/07 00:20:39;;;;;;;1.00;0.43;;;13.70;57.50;;;;;;6167432;23;20017;-74
2021/05/07 00:23:05;;;;;;;0.95;0.47;;;13.70;57.50;;;;;;6167378;23;20294;-74
2021/05/07 00:25:31;;;;;;;1.00;0.40;;;13.60;57.40;;;;;;6157461;23;20017;-74
2021/05/07 00:28:06;;;;;;;1.42;0.38;;;13.70;57.50;;;;;;6168476;23;20013;-74
2021/05/07 00:30:33;;;;;;;0.40;0.30;;;13.70;57.50;;;;;;6168080;23;20013;-74
2021/05/07 00:32:59;;;;;;;1.02;0.45;;;13.60;57.50;;;;;;6157425;23;20047;-74
2021/05/07 00:35:26;;;;;;;0.60;0.30;;;13.60;57.50;;;;;;6132438;23;20088;-74
2021/05/07 00:37:52;;;;;;;0.52;0.30;;;13.60;57.50;;;;;;6159968;23;20017;-74
2021/05/07 00:40:20;;;;;;;0.95;0.30;;;13.60;57.50;;;;;;6160608;23;20020;-74
2021/05/07 00:42:46;;;;;;;0.60;0.43;;;13.60;57.50;;;;;;6166579;23;20013;-74
2021/05/07 00:45:14;;;;;;;0.28;0.20;;;13.60;57.50;;;;;;6170261;23;20013;-74
2021/05/07 00:47:50;;;;;;;0.57;0.25;;;13.60;57.50;;;;;;6163718;23;20021;-74
2021/05/07 00:50:16;;;;;;;1.40;0.30;;;13.60;57.50;;;;;;6169236;23;20399;-74
2021/05/07 00:52:43;;;;;;;1.13;0.30;;;13.60;58.10;;;;;;6159522;23;20029;-74
2021/05/07 00:55:10;;;;;;;1.65;0.40;;;13.60;57.50;;;;;;6169951;23;20014;-74
2021/05/07 00:57:38;;;;;;;1.10;0.45;;;13.60;57.50;;;;;;6169132;23;20303;-74
2021/05/07 01:00:06;;;;;;;0.80;0.30;;;13.60;57.50;;;;;;6169447;23;20025;-74
2021/05/07 01:02:31;;;;;;;0.35;0.13;;;13.60;57.50;;;;;;6159487;23;20013;-74
2021/05/07 01:04:57;;;;;;;0.55;0.28;;;13.60;57.50;;;;;;6160078;23;20108;-74
2021/05/07 01:07:25;;;;;;;0.75;0.32;;;13.60;57.50;;;;;;6169426;23;20105;-74
2021/05/07 01:09:52;;;;;;;0.55;0.30;;;13.60;57.50;;;;;;6159582;23;20052;-74
2021/05/07 01:12:18;;;;;;;0.40;0.20;;;13.60;57.50;;;;;;6144366;23;20013;-74
2021/05/07 01:14:59;;;;;;;0.30;0.20;;;13.60;57.50;;;;;;6169433;23;20013;-74
2021/05/07 01:17:25;;;;;;;0.47;0.30;;;13.60;57.50;;;;;;6168834;23;20017;-74
2021/05/07 01:19:51;;;;;;;0.32;0.10;;;13.60;57.50;;;;;;6168917;23;20024;-74
2021/05/07 01:22:17;;;;;;;0.70;0.20;;;13.60;57.50;;;;;;6159539;23;20092;-74
2021/05/07 01:24:43;;;;;;;0.40;0.22;;;13.60;57.50;;;;;;6133796;23;20276;-74
2021/05/07 01:27:09;;;;;;;0.55;0.20;;;13.60;57.40;;;;;;6159923;23;20040;-74
2021/05/07 01:29:35;;;;;;;0.60;0.15;;;13.60;57.50;;;;;;6159827;23;20024;-74
2021/05/07 01:32:00;;;;;;;1.00;0.28;;;13.60;57.50;;;;;;6143891;23;20086;-74
2021/05/07 01:34:26;;;;;;;1.20;0.10;;;13.60;57.40;;;;;;6159428;23;20022;-74
2021/05/07 01:36:52;;;;;;;0.63;0.32;;;13.60;57.40;;;;;;6168956;23;20395;-74
2021/05/07 01:39:18;;;;;;;1.30;0.40;;;13.60;57.40;;;;;;6159240;23;20441;-74
2021/05/07 01:41:45;;;;;;;1.63;0.22;;;13.60;57.40;;;;;;6168669;23;20013;-74
2021/05/07 01:44:11;;;;;;;0.20;0.20;;;13.60;57.40;;;;;;6159003;23;20084;-74
2021/05/07 01:46:36;;;;;;;0.55;0.30;;;13.60;57.40;;;;;;6167945;23;20096;-74
2021/05/07 01:49:03;;;;;;;1.20;0.28;;;13.50;57.30;;;;;;6160448;23;20014;-74
2021/05/07 01:51:29;;;;;;;0.77;0.20;;;13.50;57.30;;;;;;6169709;23;20093;-74
2021/05/07 01:53:55;;;;;;;0.45;0.20;;;13.60;57.30;;;;;;6169202;23;20064;-74
2021/05/07 01:56:21;;;;;;;0.65;0.28;;;13.50;57.30;;;;;;6169069;23;20076;-74
2021/05/07 01:58:46;;;;;;;0.30;0.10;;;13.50;57.30;;;;;;6168962;23;20013;-74
2021/05/07 02:01:12;;;;;;;0.70;0.28;;;13.50;57.30;;;;;;6169308;23;20040;-74
2021/05/07 02:03:38;;;;;;;0.10;0.10;;;13.50;57.30;;;;;;6168924;23;20080;-74
2021/05/07 02:06:04;;;;;;;1.45;0.30;;;13.50;57.30;;;;;;6158562;23;20072;-74
2021/05/07 02:08:30;;;;;;;1.15;0.20;;;13.50;57.20;;;;;;6168578;23;20088;-74
2021/05/07 02:10:55;;;;;;;0.32;0.15;;;13.50;57.20;;;;;;6158623;23;20017;-74
2021/05/07 02:13:21;;;;;;;0.57;0.20;;;13.50;57.20;;;;;;6158849;23;20084;-74
2021/05/07 02:15:47;;;;;;;0.80;0.30;;;13.50;57.20;;;;;;6159036;23;20411;-74
2021/05/07 02:18:13;;;;;;;0.30;0.20;;;13.50;57.20;;;;;;6159422;23;20392;-74
2021/05/07 02:20:40;;;;;;;0.65;0.20;;;13.50;57.20;;;;;;6168718;23;20013;-74
2021/05/07 02:23:06;;;;;;;0.32;0.30;;;13.50;57.20;;;;;;6159124;23;20070;-74
2021/05/07 02:25:32;;;;;;;0.85;0.20;;;13.50;57.10;;;;;;6158822;23;20021;-74
2021/05/07 02:27:58;;;;;;;1.15;0.20;;;13.50;57.80;;;;;;6158664;23;20425;-74
2021/05/07 02:30:27;;;;;;;0.70;0.22;;;13.50;57.10;;;;;;6168280;23;20009;-74
2021/05/07 02:32:53;;;;;;;0.85;0.20;;;13.40;57.10;;;;;;6158302;23;20299;-74
2021/05/07 02:35:20;;;;;;;0.28;0.20;;;13.50;57.10;;;;;;6158544;23;20048;-74
2021/05/07 02:37:47;;;;;;;1.15;0.17;;;13.50;57.10;;;;;;6158496;23;20043;-74
2021/05/07 02:40:13;;;;;;;1.02;0.20;;;13.50;57.10;;;;;;6168749;23;20044;-74
2021/05/07 02:42:39;;;;;;;0.52;0.20;;;13.50;57.10;;;;;;6168434;23;20088;-74
2021/05/07 02:45:08;;;;;;;0.75;0.20;;;13.50;57.10;;;;;;6168563;23;20044;-74
2021/05/07 02:47:35;;;;;;;0.20;0.10;;;13.50;57.10;;;;;;6163873;23;20014;-74
2021/05/07 02:50:03;;;;;;;0.38;0.20;;;13.50;57.10;;;;;;6168500;23;20060;-74
2021/05/07 02:52:28;;;;;;;1.05;0.40;;;13.50;57.10;;;;;;6142820;23;20043;-74
2021/05/07 02:54:54;;;;;;;0.90;0.20;;;13.50;57.70;;;;;;6158611;23;20014;-74
2021/05/07 02:57:20;;;;;;;1.05;0.30;;;13.50;57.10;;;;;;6168272;23;20013;-74
2021/05/07 02:59:46;;;;;;;0.28;0.10;;;13.50;57.10;;;;;;6168596;23;20013;-74
2021/05/07 03:02:12;;;;;;;0.43;0.20;;;13.50;57.10;;;;;;6168351;23;20041;-74
2021/05/07 03:04:38;;;;;;;0.50;0.20;;;13.40;57.00;;;;;;6158891;23;20080;-74
2021/05/07 03:07:04;;;;;;;0.43;0.28;;;13.50;57.10;;;;;;6168135;23;20009;-74
2021/05/07 03:09:29;;;;;;;0.52;0.22;;;13.40;57.00;;;;;;6168262;23;20045;-74
2021/05/07 03:11:58;;;;;;;0.30;0.20;;;13.40;57.00;;;;;;6158623;23;20013;-74
2021/05/07 03:14:25;;;;;;;0.70;0.20;;;13.50;57.10;;;;;;6168468;23;20291;-74
2021/05/07 03:16:52;;;;;;;0.80;0.20;;;13.40;57.10;;;;;;6158170;23;20017;-74
2021/05/07 03:19:18;;;;;;;0.52;0.20;;;13.40;57.00;;;;;;6167816;23;20303;-74
2021/05/07 03:21:44;;;;;;;2.28;0.40;;;13.40;57.00;;;;;;6158365;23;20284;-74
2021/05/07 03:24:12;;;;;;;0.60;0.20;;;13.40;57.00;;;;;;6158245;23;20013;-74
2021/05/07 03:26:39;;;;;;;0.88;0.20;;;13.40;57.00;;;;;;6158162;23;20029;-74
2021/05/07 03:29:06;;;;;;;0.30;0.20;;;13.40;57.00;;;;;;6167751;23;20010;-74
2021/05/07 03:31:34;;;;;;;0.70;0.20;;;13.40;57.00;;;;;;6158669;23;20096;-74
2021/05/07 03:34:01;;;;;;;0.93;0.17;;;13.40;57.00;;;;;;6158145;23;20013;-74
2021/05/07 03:36:27;;;;;;;0.52;0.30;;;13.40;57.00;;;;;;6158284;23;20013;-74
2021/05/07 03:38:54;;;;;;;0.70;0.20;;;13.40;57.00;;;;;;6158091;23;20032;-75
2021/05/07 03:41:19;;;;;;;1.05;0.30;;;13.40;57.00;;;;;;6158948;23;20021;-74
2021/05/07 03:43:45;;;;;;;0.70;0.30;;;13.40;57.00;;;;;;6142215;23;20412;-74
2021/05/07 03:46:11;;;;;;;0.50;0.20;;;13.40;57.00;;;;;;6158992;23;20037;-74
2021/05/07 03:48:37;;;;;;;0.50;0.10;;;13.40;57.00;;;;;;6158351;23;20017;-74
2021/05/07 03:51:03;;;;;;;0.95;0.30;;;13.40;57.00;;;;;;6168288;23;20339;-74
2021/05/07 03:53:29;;;;;;;0.60;0.22;;;13.40;57.00;;;;;;6167734;23;20017;-75
2021/05/07 03:55:56;;;;;;;0.55;0.22;;;13.40;57.00;;;;;;6158030;23;20068;-74
2021/05/07 03:58:23;;;;;;;0.82;0.20;;;13.40;57.00;;;;;;6168647;23;20013;-74
2021/05/07 04:00:49;;;;;;;0.82;0.22;;;13.40;57.00;;;;;;6168532;23;20121;-74
2021/05/07 04:03:15;;;;;;;0.40;0.20;;;13.40;57.00;;;;;;6168160;23;20010;-74
2021/05/07 04:05:41;;;;;;;1.35;0.30;;;13.40;57.00;;;;;;6167903;23;20399;-74
2021/05/07 04:08:14;;;;;;;0.32;0.20;;;13.40;57.00;;;;;;6168365;23;20017;-74
2021/05/07 04:10:51;;;;;;;1.65;0.20;;;13.40;57.00;;;;;;6169945;23;20033;-74
2021/05/07 04:16:21;;;;;;;0.52;0.20;;;13.40;57.00;;;;;;6041308;23;20015;-74
2021/05/07 04:18:48;;;;;;;0.93;0.30;;;13.30;57.00;;;;;;6041303;23;20074;-74
2021/05/07 04:21:14;;;;;;;0.82;0.30;;;13.30;56.90;;;;;;6102121;23;20018;-74
2021/05/07 04:23:40;;;;;;;0.38;0.10;;;13.40;57.00;;;;;;6160076;23;20013;-74
2021/05/07 04:26:05;;;;;;;1.45;0.13;;;13.30;57.60;;;;;;6169544;23;20462;-74
2021/05/07 04:28:31;;;;;;;0.65;0.10;;;13.30;56.90;;;;;;6169458;23;20047;-74
2021/05/07 04:30:57;;;;;;;0.60;0.10;;;13.30;56.90;;;;;;6169815;23;20010;-74
2021/05/07 04:33:23;;;;;;;0.50;0.20;;;13.30;56.90;;;;;;6169133;23;20021;-74
2021/05/07 04:35:49;;;;;;;0.35;0.20;;;13.30;56.90;;;;;;6168593;23;20084;-74
2021/05/07 04:38:15;;;;;;;0.73;0.20;;;13.30;56.90;;;;;;6159965;23;20013;-74
2021/05/07 04:40:41;;;;;;;0.20;0.10;;;13.30;56.90;;;;;;6169734;23;20041;-74
2021/05/07 04:43:07;;;;;;;0.30;0.10;;;13.30;56.90;;;;;;6170340;23;20438;-74
2021/05/07 04:45:33;;;;;;;0.10;0.10;;;13.30;56.90;;;;;;6159695;23;20017;-74
2021/05/07 04:48:00;;;;;;;1.30;0.20;;;13.30;56.90;;;;;;6159358;23;20025;-74
2021/05/07 04:50:27;;;;;;;0.52;0.20;;;13.30;56.90;;;;;;6169744;23;20013;-74
2021/05/07 04:52:54;;;;;;;0.65;0.13;;;13.30;56.90;;;;;;6169261;23;20442;-74
2021/05/07 04:55:20;;;;;;;1.15;0.50;;;13.30;56.90;;;;;;6169458;23;20013;-74
2021/05/07 04:57:46;;;;;;;0.75;0.20;;;13.30;56.90;;;;;;6160358;23;20091;-74
2021/05/07 05:00:12;;;;;;;0.40;0.20;;;13.30;56.90;;;;;;6169573;23;20013;-74
2021/05/07 05:02:38;;;;;;;0.43;0.20;;;13.30;56.90;;;;;;6169415;23;20020;-74
2021/05/07 05:05:05;;;;;;;1.08;0.20;;;13.30;56.90;;;;;;6160543;23;20013;-74
2021/05/07 05:07:31;;;;;;;0.40;0.20;;;13.30;56.90;;;;;;6169608;23;20287;-74
2021/05/07 05:09:57;;;;;;;0.80;0.20;;;13.30;56.90;;;;;;6159566;23;20052;-74
2021/05/07 05:12:22;;;;;;;0.73;0.28;;;13.30;56.90;;;;;;6169060;23;20058;-74
2021/05/07 05:14:48;;;;;;;1.73;0.50;;;13.30;56.90;;;;;;6169074;23;20021;-74
2021/05/07 05:17:14;;;;;;;0.52;0.22;;;13.30;56.90;;;;;;6169291;23;20006;-74
2021/05/07 05:19:40;;;;;;;0.32;0.20;;;13.30;56.90;;;;;;6159136;23;20084;-74
2021/05/07 05:22:06;;;;;;;0.55;0.20;;;13.30;56.90;;;;;;6168832;23;20084;-74
2021/05/07 05:24:31;;;;;;;0.55;0.20;;;13.30;56.90;;;;;;6169644;23;20351;-74
2021/05/07 05:26:58;;;;;;;0.43;0.20;;;13.30;56.90;;;;;;6168934;23;20014;-74
2021/05/07 05:29:26;;;;;;;0.50;0.20;;;13.30;56.90;;;;;;6170020;23;20009;-74
2021/05/07 05:31:52;;;;;;;0.90;0.28;;;13.30;56.90;;;;;;6169913;23;20100;-74
2021/05/07 05:34:18;;;;;;;0.60;0.20;;;13.30;56.90;;;;;;6159136;23;20017;-74
2021/05/07 05:36:46;;;;;;;0.40;0.20;;;13.30;56.90;;;;;;6169201;23;20010;-74
2021/05/07 05:39:15;;;;;;;0.30;0.15;;;13.30;56.90;;;;;;6169510;23;20014;-74
2021/05/07 05:41:42;;;;;;;1.00;0.35;;;13.30;56.90;;;;;;6169334;23;20023;-74
2021/05/07 05:44:09;;;;;;;0.57;0.20;;;13.30;56.90;;;;;;6169043;23;20024;-74
2021/05/07 05:46:36;;;;;;;0.30;0.20;;;13.30;56.90;;;;;;6167391;23;20017;-74
2021/05/07 05:49:03;;;;;;;0.70;0.17;;;13.30;56.90;;;;;;6168661;23;20369;-74
2021/05/07 05:51:29;;;;;;;0.25;0.15;;;13.30;57.00;;;;;;6169688;23;20017;-74
2021/05/07 05:53:56;;;;;;;1.10;0.38;;;13.30;57.00;;;;;;6143067;23;20335;-74
2021/05/07 05:56:21;;;;;;;0.45;0.20;;;13.30;56.90;;;;;;6168444;23;20076;-74
2021/05/07 05:58:47;;;;;;;0.63;0.20;;;13.30;56.90;;;;;;6168946;23;20014;-74
2021/05/07 06:01:13;;;;;;;0.75;0.15;;;13.30;56.90;;;;;;6169451;23;20021;-74
2021/05/07 06:03:39;;;;;;;0.25;0.13;;;13.30;57.00;;;;;;6169124;23;20014;-74
2021/05/07 06:06:04;;;;;;;0.70;0.20;;;13.40;57.00;;;;;;6169262;23;20017;-74
2021/05/07 06:08:30;;;;;;;1.17;0.40;;;13.40;57.00;;;;;;6168777;23;20284;-74
2021/05/07 06:10:56;;;;;;;0.80;0.40;;;13.30;56.90;;;;;;6169045;23;20014;-74
2021/05/07 06:13:22;;;;;;;1.00;0.50;;;13.40;57.00;;;;;;6168355;23;20013;-74
2021/05/07 06:15:48;;;;;;;0.50;0.20;;;13.40;57.00;;;;;;6168758;23;20009;-74
2021/05/07 06:18:14;;;;;;;0.60;0.40;;;13.40;57.00;;;;;;6142764;23;20014;-74
2021/05/07 06:20:39;;;;;;;1.42;0.20;;;13.40;57.00;;;;;;6142995;23;20414;-74
2021/05/07 06:23:05;;;;;;;0.90;0.30;;;13.40;57.00;;;;;;6168778;23;20021;-74
2021/05/07 06:25:31;;;;;;;0.55;0.25;;;13.40;57.00;;;;;;6168543;23;20017;-74
2021/05/07 06:27:57;;;;;;;0.52;0.30;;;13.40;57.00;;;;;;6169321;23;20088;-74
2021/05/07 06:30:23;;;;;;;1.40;0.20;;;13.40;57.00;;;;;;6168663;23;20023;-74
2021/05/07 06:32:49;;;;;;;0.70;0.32;;;13.50;57.20;;;;;;6168561;23;20017;-74
2021/05/07 06:35:15;;;;;;;1.13;0.30;;;13.50;57.20;;;;;;6169302;23;20036;-74
2021/05/07 06:37:41;;;;;;;0.60;0.40;;;13.50;57.20;;;;;;6168778;23;20010;-74
2021/05/07 06:40:07;;;;;;;0.60;0.30;;;13.50;57.20;;;;;;6159292;23;20021;-74
2021/05/07 06:42:38;;;;;;;0.77;0.40;;;13.50;57.20;;;;;;6158516;23;20077;-74
2021/05/07 06:45:06;;;;;;;0.60;0.40;;;13.50;57.20;;;;;;6168147;23;20300;-74
2021/05/07 06:47:32;;;;;;;0.73;0.30;;;13.50;57.30;;;;;;6158687;23;20021;-74
2021/05/07 06:49:58;;;;;;;0.47;0.30;;;13.50;57.30;;;;;;6168183;23;20287;-75
2021/05/07 06:52:24;;;;;;;0.65;0.20;;;13.50;57.40;;;;;;6168474;23;20024;-74
2021/05/07 06:54:51;;;;;;;0.85;0.30;;;13.50;57.40;;;;;;6158907;23;20085;-74
2021/05/07 06:57:17;;;;;;;0.85;0.30;;;13.50;57.40;;;;;;6168236;23;20020;-74
2021/05/07 06:59:46;;;;;;;0.40;0.20;;;13.60;57.50;;;;;;6168365;23;20330;-74
2021/05/07 07:02:13;;;;;;;0.43;0.30;;;13.60;57.50;;;;;;6167860;23;20332;-74
2021/05/07 07:04:39;;;;;;;1.92;0.75;;;13.60;57.50;;;;;;6158544;23;20307;-74
2021/05/07 07:07:05;;;;;;;0.52;0.20;;;13.60;57.50;;;;;;6169006;23;20022;-74
2021/05/07 07:09:31;;;;;;;0.43;0.20;;;13.60;57.50;;;;;;6168232;23;20013;-74
2021/05/07 07:11:57;;;;;;;0.82;0.20;;;13.60;57.50;;;;;;6142525;23;20085;-74
2021/05/07 07:14:22;;;;;;;0.93;0.25;;;13.60;57.60;;;;;;6168905;23;20434;-74
2021/05/07 07:16:48;;;;;;;1.10;0.20;;;13.70;57.60;;;;;;6168530;23;20050;-74
2021/05/07 07:19:14;;;;;;;0.60;0.20;;;13.70;57.70;;;;;;6168595;23;20052;-75
2021/05/07 07:21:40;;;;;;;1.05;0.20;;;13.70;57.70;;;;;;6168117;23;20014;-74
2021/05/07 07:24:06;;;;;;;0.38;0.20;;;13.60;57.60;;;;;;6167844;23;20303;-75
2021/05/07 07:26:32;;;;;;;0.55;0.28;;;13.60;58.30;;;;;;6167744;23;20407;-74
2021/05/07 07:28:58;;;;;;;0.45;0.20;;;13.60;57.60;;;;;;6159194;23;20081;-74
2021/05/07 07:31:23;;;;;;;0.47;0.20;;;13.70;57.70;;;;;;6168090;23;20415;-74
2021/05/07 07:33:50;;;;;;;0.90;0.20;;;13.70;57.70;;;;;;6167971;23;20017;-74
2021/05/07 07:36:15;;;;;;;0.90;0.40;;;13.70;57.70;;;;;;6168257;23;20403;-74
2021/05/07 07:38:41;;;;;;;0.60;0.22;;;13.70;57.70;;;;;;6168177;23;20020;-74
2021/05/07 07:41:07;;;;;;;1.40;0.30;;;13.70;57.70;;;;;;6168025;23;20009;-74
2021/05/07 07:43:33;;;;;;;0.38;0.20;;;13.70;57.70;;;;;;6168590;23;20009;-74
2021/05/07 07:46:00;;;;;;;0.85;0.30;;;13.70;57.80;;;;;;6167800;23;20375;-74
2021/05/07 07:48:26;;;;;;;1.35;0.60;;;13.80;57.80;;;;;;6158843;23;20009;-74
2021/05/07 07:50:52;;;;;;;0.77;0.30;;;13.70;57.80;;;;;;6168687;23;20461;-74
2021/05/07 07:53:17;;;;;;;0.90;0.40;;;13.70;57.80;;;;;;6167972;23;20025;-75
2021/05/07 07:55:44;;;;;;;0.45;0.30;;;13.70;57.80;;;;;;6168566;23;20280;-75
2021/05/07 07:58:09;;;;;;;1.02;0.30;;;13.80;57.90;;;;;;6168347;23;20014;-74
2021/05/07 08:00:36;;;;;;;0.30;0.20;;;13.80;57.90;;;;;;6167928;23;20041;-75
2021/05/07 08:03:02;;;;;;;0.95;0.20;;;13.80;57.90;;;;;;6168093;23;20080;-75
2021/05/07 08:05:28;;;;;;;0.82;0.30;;;13.80;58.00;;;;;;6167580;23;20276;-75
2021/05/07 08:08:00;;;;;;;0.35;0.25;;;13.70;57.90;;;;;;6168578;23;20089;-74
2021/05/07 08:10:26;;;;;;;1.02;0.30;;;13.80;58.00;;;;;;6167848;23;20017;-75
2021/05/07 08:12:52;;;;;;;0.40;0.30;;;13.80;58.00;;;;;;6167899;23;20020;-75
2021/05/07 08:15:20;;;;;;;0.30;0.20;;;13.80;58.00;;;;;;6167900;23;20081;-75
2021/05/07 08:17:47;;;;;;;0.75;0.30;;;13.80;58.00;;;;;;6167723;23;20009;-75
2021/05/07 08:20:14;;;;;;;0.50;0.25;;;13.80;58.10;;;;;;6142108;23;20009;-75
2021/05/07 08:22:40;;;;;;;1.20;0.40;;;13.80;58.10;;;;;;6157762;23;20028;-75
2021/05/07 08:25:09;;;;;;;0.50;0.25;;;13.80;58.10;;;;;;6167814;23;20010;-75
2021/05/07 08:27:35;;;;;;;0.60;0.20;;;13.80;58.10;;;;;;6158154;23;20434;-75
2021/05/07 08:30:01;;;;;;;0.32;0.20;;;13.80;58.10;;;;;;6167829;23;20013;-75
2021/05/07 08:32:27;;;;;;;1.55;0.30;;;13.80;58.10;;;;;;6107692;23;20013;-75
2021/05/07 08:34:55;;;;;;;1.05;0.22;;;13.80;58.10;;;;;;6168232;23;20015;-75
2021/05/07 08:37:21;;;;;;;0.75;0.20;;;13.80;58.10;;;;;;6167566;23;20084;-75
2021/05/07 08:39:47;;;;;;;0.88;0.25;;;13.80;58.10;;;;;;6133157;23;20033;-75
2021/05/07 08:42:13;;;;;;;1.00;0.30;;;13.80;58.00;;;;;;6158080;23;20020;-75
2021/05/07 08:44:39;;;;;;;0.35;0.15;;;13.80;58.10;;;;;;6167796;23;20465;-75
2021/05/07 08:47:06;;;;;;;0.47;0.20;;;13.90;58.10;;;;;;6164240;23;20017;-75
2021/05/07 08:49:32;;;;;;;0.80;0.30;;;13.80;58.10;;;;;;6168029;23;20009;-75
2021/05/07 08:51:58;;;;;;;0.73;0.40;;;13.80;58.10;;;;;;6167282;23;20084;-75
2021/05/07 08:54:27;;;;;;;0.70;0.28;;;13.80;58.10;;;;;;6158030;23;20024;-75
2021/05/07 08:56:55;;;;;;;0.57;0.30;;;13.90;58.10;;;;;;6168242;23;20037;-75
2021/05/07 08:59:21;;;;;;;0.65;0.20;;;13.90;58.10;;;;;;6159610;23;20037;-75
2021/05/07 09:01:49;;;;;;;1.02;0.22;;;13.90;58.10;;;;;;6169404;23;20411;-74
2021/05/07 09:04:18;;;;;;;1.10;0.40;;;13.90;58.10;;;;;;6169108;23;20014;-75
2021/05/07 09:06:53;;;;;;;0.50;0.20;;;13.90;58.80;;;;;;6170064;23;20017;-75
2021/05/07 09:09:29;;;;;;;0.60;0.20;;;13.90;58.20;;;;;;6169159;23;20442;-75
2021/05/07 09:12:00;;;;;;;0.32;0.20;;;13.90;58.10;;;;;;6169246;23;20296;-75
2021/05/07 09:14:28;;;;;;;0.52;0.30;;;13.90;58.10;;;;;;6169547;23;20010;-75
2021/05/07 09:16:55;;;;;;;0.47;0.20;;;13.80;58.00;;;;;;6169308;23;20031;-75
2021/05/07 09:19:24;;;;;;;0.93;0.30;;;13.90;58.10;;;;;;6169633;23;20088;-75
2021/05/07 09:21:50;;;;;;;0.85;0.20;;;13.90;58.10;;;;;;6134039;23;20045;-75
2021/05/07 09:24:17;;;;;;;1.67;0.20;;;13.90;58.10;;;;;;6169635;23;20021;-75
2021/05/07 09:26:48;;;;;;;1.23;0.40;;;13.90;58.10;;;;;;6169716;23;20009;-74
2021/05/07 09:29:19;;;;;;;1.30;0.30;;;13.90;58.10;;;;;;6159469;23;20391;-75
2021/05/07 09:31:47;;;;;;;0.80;0.20;;;13.90;58.10;;;;;;6169298;23;20020;-75
2021/05/07 09:34:14;;;;;;;0.20;0.20;;;13.90;58.10;;;;;;6169295;23;20096;-75
2021/05/07 09:36:40;;;;;;;0.77;0.30;;;13.90;58.10;;;;;;6159212;23;20013;-75
2021/05/07 09:39:17;;;;;;;1.17;0.40;;;13.90;58.00;;;;;;6168857;23;20411;-75
2021/05/07 09:41:45;;;;;;;1.20;0.28;;;13.90;58.00;;;;;;6169295;23;20033;-74
2021/05/07 09:44:23;;;;;;;0.40;0.20;;;13.90;58.00;;;;;;6143301;23;20092;-75
2021/05/07 09:46:51;;;;;;;0.68;0.38;;;13.90;58.00;;;;;;6167407;23;20040;-75
2021/05/07 09:49:32;;;;;;;0.57;0.17;;;13.90;58.00;;;;;;6168792;23;20300;-75
2021/05/07 09:51:58;;;;;;;0.38;0.17;;;13.90;58.00;;;;;;6169073;23;20018;-75
2021/05/07 09:54:25;;;;;;;0.93;0.30;;;14.00;58.00;;;;;;6169082;23;20020;-76
2021/05/07 09:56:54;;;;;;;0.35;0.10;;;13.90;58.00;;;;;;6169648;23;20077;-75
2021/05/07 09:59:21;;;;;;;0.20;0.17;;;14.00;58.00;;;;;;6169057;23;20033;-75
2021/05/07 10:01:47;;;;;;;1.33;0.40;;;13.90;58.00;;;;;;6169563;23;20010;-75
2021/05/07 10:04:15;;;;;;;0.70;0.30;;;14.00;58.00;;;;;;6169166;23;20014;-75
2021/05/07 10:06:41;;;;;;;0.43;0.28;;;14.00;58.00;;;;;;6169136;23;20013;-75
2021/05/07 10:09:09;;;;;;;0.75;0.20;;;14.00;58.00;;;;;;6168619;23;20025;-75
2021/05/07 10:11:41;;;;;;;1.23;0.32;;;14.00;58.00;;;;;;6168582;23;20295;-75
2021/05/07 10:14:12;;;;;;;0.93;0.20;;;14.00;58.00;;;;;;6159350;23;20271;-75
2021/05/07 10:16:39;;;;;;;0.30;0.20;;;14.00;58.00;;;;;;6168827;23;20344;-75
2021/05/07 10:19:07;;;;;;;1.10;0.20;;;14.00;58.00;;;;;;6168386;23;20017;-75
2021/05/07 10:21:39;;;;;;;0.70;0.20;;;14.00;58.00;;;;;;6168394;23;20343;-75
2021/05/07 10:24:10;;;;;;;0.30;0.10;;;14.00;58.60;;;;;;6158688;23;20025;-75
2021/05/07 10:26:45;;;;;;;0.80;0.20;;;14.00;58.00;;;;;;6168735;23;20017;-75
2021/05/07 10:29:17;;;;;;;0.52;0.30;;;14.00;58.00;;;;;;6159139;23;20013;-75
2021/05/07 10:31:47;;;;;;;1.38;0.30;;;14.00;57.90;;;;;;6168654;23;20016;-75
2021/05/07 10:34:13;;;;;;;0.70;0.30;;;14.00;58.00;;;;;;6168219;23;20068;-75
2021/05/07 10:36:43;;;;;;;0.60;0.25;;;14.00;57.90;;;;;;6168486;23;20013;-75
2021/05/07 10:39:26;;;;;;;0.52;0.17;;;14.00;57.90;;;;;;6169024;23;20435;-75
2021/05/07 10:41:55;;;;;;;0.57;0.28;;;14.00;57.90;;;;;;6168629;23;20009;-75
2021/05/07 10:44:23;;;;;;;1.60;0.40;;;14.00;57.90;;;;;;6168546;23;20021;-75
2021/05/07 10:47:09;;;;;;;0.30;0.15;;;14.00;57.90;;;;;;6166129;23;20016;-75
2021/05/07 10:49:40;;;;;;;0.30;0.20;;;14.00;57.90;;;;;;6168567;23;20017;-75
2021/05/07 10:52:08;;;;;;;1.02;0.20;;;14.00;57.90;;;;;;6169233;23;20009;-75
2021/05/07 10:54:35;;;;;;;1.05;0.30;;;14.00;57.90;;;;;;6168208;23;20014;-75
2021/05/07 10:57:01;;;;;;;0.47;0.20;;;14.00;57.90;;;;;;6169033;23;20080;-75
2021/05/07 10:59:28;;;;;;;2.47;0.38;;;14.00;57.90;;;;;;6168451;23;20037;-75
2021/05/07 11:02:02;;;;;;;0.93;0.30;;;14.00;57.80;;;;;;6168313;23;20021;-75
2021/05/07 11:04:41;;;;;;;0.70;0.20;;;14.00;57.80;;;;;;6169059;23;20013;-75
2021/05/07 11:07:07;;;;;;;0.95;0.25;;;14.00;57.80;;;;;;6168544;23;20013;-75
2021/05/07 11:09:33;;;;;;;0.57;0.20;;;14.00;57.70;;;;;;6158349;23;20018;-75
2021/05/07 11:12:05;;;;;;;0.50;0.20;;;14.10;57.80;;;;;;6168341;23;20471;-75
2021/05/07 11:14:37;;;;;;;0.50;0.20;;;14.00;57.70;;;;;;6168313;23;20013;-75
2021/05/07 11:17:04;;;;;;;0.77;0.20;;;14.00;57.70;;;;;;6168154;23;20099;-75
2021/05/07 11:19:31;;;;;;;1.25;0.20;;;14.10;57.70;;;;;;6167571;23;20284;-75
2021/05/07 11:22:03;;;;;;;1.05;0.38;;;14.10;57.70;;;;;;6167862;23;20017;-75
2021/05/07 11:24:32;;;;;;;0.75;0.38;;;14.00;57.60;;;;;;6168198;23;20419;-75
2021/05/07 11:26:58;;;;;;;1.02;0.30;;;14.10;57.70;;;;;;6158084;23;20109;-75
2021/05/07 11:29:26;;;;;;;0.88;0.30;;;14.10;57.70;;;;;;6168186;23;20009;-75
2021/05/07 11:31:52;;;;;;;0.98;0.38;;;14.10;57.60;;;;;;6167803;23;20386;-75
2021/05/07 11:34:28;;;;;;;1.10;0.50;;;14.10;57.60;;;;;;6157893;23;20070;-76
2021/05/07 11:36:58;;;;;;;0.88;0.20;;;14.10;57.60;;;;;;6158187;23;20010;-75
2021/05/07 11:39:24;;;;;;;1.75;0.45;;;14.00;57.60;;;;;;6158447;23;20032;-75
2021/05/07 11:41:50;;;;;;;1.85;0.28;;;14.00;57.60;;;;;;6132385;23;20423;-75
2021/05/07 11:44:16;;;;;;;0.90;0.30;;;14.10;57.70;;;;;;6168039;23;20142;-75
2021/05/07 11:46:42;;;;;;;1.23;0.32;;;14.00;57.60;;;;;;6166262;23;20033;-75
2021/05/07 11:49:08;;;;;;;1.27;0.20;;;14.00;57.60;;;;;;6167487;23;20370;-75
2021/05/07 11:51:34;;;;;;;0.57;0.22;;;14.00;57.60;;;;;;6167931;23;20152;-75
2021/05/07 11:54:00;;;;;;;0.63;0.30;;;14.00;57.60;;;;;;6168025;23;20014;-75
2021/05/07 11:56:28;;;;;;;0.95;0.30;;;14.10;57.70;;;;;;6157932;23;20020;-75
2021/05/07 11:58:54;;;;;;;0.65;0.20;;;14.00;57.60;;;;;;6168647;23;20478;-75
2021/05/07 12:01:24;;;;;;;1.05;0.30;;;14.00;57.60;;;;;;6167817;23;20022;-75
2021/05/07 12:03:52;;;;;;;0.95;0.30;;;14.00;57.60;;;;;;6167594;23;20084;-75
2021/05/07 12:06:25;;;;;;;1.27;0.35;;;14.10;57.70;;;;;;6167695;23;20387;-75
2021/05/07 12:08:52;;;;;;;0.93;0.30;;;14.00;57.60;;;;;;6167950;23;20014;-75
2021/05/07 12:11:18;;;;;;;0.65;0.30;;;14.00;57.60;;;;;;6168681;23;20024;-75
2021/05/07 12:13:48;;;;;;;0.80;0.20;;;14.10;57.60;;;;;;6157448;23;20121;-75
2021/05/07 12:16:15;;;;;;;1.05;0.30;;;14.10;57.60;;;;;;6168415;23;20009;-75
2021/05/07 12:18:54;;;;;;;1.45;0.32;;;14.10;57.60;;;;;;6167804;23;20014;-75
2021/05/07 12:21:20;;;;;;;0.77;0.30;;;14.10;57.50;;;;;;6167838;23;20009;-75
2021/05/07 12:23:52;;;;;;;0.88;0.30;;;14.00;57.40;;;;;;6168467;23;20079;-75
2021/05/07 12:26:20;;;;;;;0.93;0.30;;;14.00;57.30;;;;;;6168549;23;20071;-75
2021/05/07 12:28:59;;;;;;;0.63;0.30;;;14.10;57.10;;;;;;6167452;23;20109;-75
2021/05/07 12:31:30;;;;;;;1.75;0.40;;;14.10;57.00;;;;;;6159381;23;20378;-75
2021/05/07 12:33:56;;;;;;;0.95;0.25;;;14.00;57.00;;;;;;6169848;23;20028;-75
2021/05/07 12:36:24;;;;;;;0.55;0.30;;;14.00;57.00;;;;;;6169300;23;20038;-75
2021/05/07 12:38:50;;;;;;;1.55;0.30;;;14.00;57.00;;;;;;6160206;23;20264;-75
2021/05/07 12:41:20;;;;;;;0.90;0.30;;;14.00;57.10;;;;;;6170009;23;20036;-75
2021/05/07 12:43:49;;;;;;;2.33;0.43;;;14.00;57.20;;;;;;6162464;23;20013;-75
2021/05/07 12:46:16;;;;;;;1.45;0.10;;;14.10;57.20;;;;;;6159711;23;20013;-74
2021/05/07 12:48:46;;;;;;;1.17;0.30;;;14.10;57.30;;;;;;6169642;23;20010;-75
2021/05/07 12:51:13;;;;;;;0.98;0.20;;;14.10;57.30;;;;;;6169186;23;20284;-75